Terminal Aerodrome Forecast
Issued by NWS

Current Version | Previous Version | Graphics & Text | Print | Product List | Glossary On
Versions: 1 2 3 4 5 6 7 8 9 10 11 12 13 14
981
FTUS41 KILN 201742
TAFLCK
TAF
KLCK 201742Z 2018/2118 25008KT P6SM SCT040 BKN250
     FM202000 23008KT P6SM VCTS BKN050CB
     FM210200 23006KT P6SM VCSH BKN120
     FM211200 32004KT P6SM BKN035=

USA.gov is the U.S. government's official web portal to all federal, state and local government web resources and services.